sensor_id;sensor_type;location;lat;lon;timestamp;pressure;altitude;pressure_sealevel;temperature
60949;BMP280;46729;43.010;24.320;2022-08-25T00:00:20;97018.75;;;20.64
60949;BMP280;46729;43.010;24.320;2022-08-25T00:02:46;97006.13;;;20.55
60949;BMP280;46729;43.010;24.320;2022-08-25T00:05:12;97009.06;;;20.53
60949;BMP280;46729;43.010;24.320;2022-08-25T00:07:37;97015.22;;;20.59
60949;BMP280;46729;43.010;24.320;2022-08-25T00:10:05;97010.06;;;20.47
60949;BMP280;46729;43.010;24.320;2022-08-25T00:12:31;97014.53;;;20.37
60949;BMP280;46729;43.010;24.320;2022-08-25T00:14:57;97005.88;;;20.30
60949;BMP280;46729;43.010;24.320;2022-08-25T00:17:23;97003.03;;;20.37
60949;BMP280;46729;43.010;24.320;2022-08-25T00:19:48;97003.31;;;20.40
60949;BMP280;46729;43.010;24.320;2022-08-25T00:22:14;97004.72;;;20.47
60949;BMP280;46729;43.010;24.320;2022-08-25T00:24:39;97011.66;;;20.48
60949;BMP280;46729;43.010;24.320;2022-08-25T00:27:05;97009.72;;;20.39
60949;BMP280;46729;43.010;24.320;2022-08-25T00:29:32;97011.75;;;20.32
60949;BMP280;46729;43.010;24.320;2022-08-25T00:31:58;97007.44;;;20.26
60949;BMP280;46729;43.010;24.320;2022-08-25T00:34:28;97007.31;;;20.12
60949;BMP280;46729;43.010;24.320;2022-08-25T00:36:54;97015.78;;;20.04
60949;BMP280;46729;43.010;24.320;2022-08-25T00:39:21;97022.31;;;19.92
60949;BMP280;46729;43.010;24.320;2022-08-25T00:41:49;97019.09;;;19.90
60949;BMP280;46729;43.010;24.320;2022-08-25T00:44:15;97025.81;;;19.97
60949;BMP280;46729;43.010;24.320;2022-08-25T00:46:50;97015.78;;;20.04
60949;BMP280;46729;43.010;24.320;2022-08-25T00:49:20;97023.31;;;20.12
60949;BMP280;46729;43.010;24.320;2022-08-25T00:54:27;97008.94;;;20.13
60949;BMP280;46729;43.010;24.320;2022-08-25T00:56:55;96995.53;;;20.08
60949;BMP280;46729;43.010;24.320;2022-08-25T00:59:22;96994.84;;;19.91
60949;BMP280;46729;43.010;24.320;2022-08-25T01:01:50;96997.84;;;20.00
60949;BMP280;46729;43.010;24.320;2022-08-25T01:04:16;97002.50;;;20.14
60949;BMP280;46729;43.010;24.320;2022-08-25T01:06:43;96992.41;;;20.16
60949;BMP280;46729;43.010;24.320;2022-08-25T01:09:10;96995.06;;;20.16
60949;BMP280;46729;43.010;24.320;2022-08-25T01:11:36;96999.25;;;20.07
60949;BMP280;46729;43.010;24.320;2022-08-25T01:14:03;97004.59;;;20.07
60949;BMP280;46729;43.010;24.320;2022-08-25T01:16:35;97003.19;;;20.00
60949;BMP280;46729;43.010;24.320;2022-08-25T01:19:01;96999.84;;;20.14
60949;BMP280;46729;43.010;24.320;2022-08-25T01:21:29;96993.75;;;20.18
60949;BMP280;46729;43.010;24.320;2022-08-25T01:23:57;97000.94;;;20.13
60949;BMP280;46729;43.010;24.320;2022-08-25T01:26:30;96994.00;;;20.17
60949;BMP280;46729;43.010;24.320;2022-08-25T01:28:58;96998.28;;;20.18
60949;BMP280;46729;43.010;24.320;2022-08-25T01:31:43;96988.13;;;20.15
60949;BMP280;46729;43.010;24.320;2022-08-25T01:34:10;96994.44;;;20.04
60949;BMP280;46729;43.010;24.320;2022-08-25T01:36:40;96993.63;;;20.03
60949;BMP280;46729;43.010;24.320;2022-08-25T01:39:06;96984.84;;;20.08
60949;BMP280;46729;43.010;24.320;2022-08-25T01:44:16;96994.44;;;19.78
60949;BMP280;46729;43.010;24.320;2022-08-25T01:46:42;96998.53;;;19.65
60949;BMP280;46729;43.010;24.320;2022-08-25T01:49:08;96998.84;;;19.68
60949;BMP280;46729;43.010;24.320;2022-08-25T01:51:43;96999.09;;;19.66
60949;BMP280;46729;43.010;24.320;2022-08-25T01:54:09;96983.09;;;19.66
60949;BMP280;46729;43.010;24.320;2022-08-25T01:56:35;96978.03;;;19.65
60949;BMP280;46729;43.010;24.320;2022-08-25T01:59:00;96985.53;;;19.68
60949;BMP280;46729;43.010;24.320;2022-08-25T02:01:26;96970.50;;;19.62
60949;BMP280;46729;43.010;24.320;2022-08-25T02:03:54;96974.34;;;19.71
60949;BMP280;46729;43.010;24.320;2022-08-25T02:06:28;96976.13;;;19.86
60949;BMP280;46729;43.010;24.320;2022-08-25T02:08:59;96965.94;;;20.09
60949;BMP280;46729;43.010;24.320;2022-08-25T02:11:25;96965.84;;;20.30
60949;BMP280;46729;43.010;24.320;2022-08-25T02:13:51;96969.25;;;20.21
60949;BMP280;46729;43.010;24.320;2022-08-25T02:16:24;96965.72;;;20.16
60949;BMP280;46729;43.010;24.320;2022-08-25T02:18:53;96966.25;;;20.13
60949;BMP280;46729;43.010;24.320;2022-08-25T02:21:19;96962.97;;;20.06
60949;BMP280;46729;43.010;24.320;2022-08-25T02:23:44;96963.94;;;19.95
60949;BMP280;46729;43.010;24.320;2022-08-25T02:26:10;96956.53;;;20.02
60949;BMP280;46729;43.010;24.320;2022-08-25T02:28:36;96965.34;;;20.03
60949;BMP280;46729;43.010;24.320;2022-08-25T02:31:03;96961.34;;;20.05
60949;BMP280;46729;43.010;24.320;2022-08-25T02:33:29;96959.25;;;20.07
60949;BMP280;46729;43.010;24.320;2022-08-25T02:35:59;96960.00;;;20.03
60949;BMP280;46729;43.010;24.320;2022-08-25T02:38:26;96955.19;;;20.04
60949;BMP280;46729;43.010;24.320;2022-08-25T02:40:53;96961.34;;;20.05
60949;BMP280;46729;43.010;24.320;2022-08-25T02:43:19;96961.41;;;20.10
60949;BMP280;46729;43.010;24.320;2022-08-25T02:45:44;96948.69;;;20.22
60949;BMP280;46729;43.010;24.320;2022-08-25T02:48:10;96945.56;;;20.29
60949;BMP280;46729;43.010;24.320;2022-08-25T02:50:35;96951.31;;;20.17
60949;BMP280;46729;43.010;24.320;2022-08-25T02:53:01;96941.22;;;20.19
60949;BMP280;46729;43.010;24.320;2022-08-25T02:55:27;96945.97;;;20.12
60949;BMP280;46729;43.010;24.320;2022-08-25T02:57:52;96941.88;;;20.04
60949;BMP280;46729;43.010;24.320;2022-08-25T03:00:18;96941.38;;;20.07
60949;BMP280;46729;43.010;24.320;2022-08-25T03:02:44;96935.22;;;20.07
60949;BMP280;46729;43.010;24.320;2022-08-25T03:05:12;96952.25;;;20.01
60949;BMP280;46729;43.010;24.320;2022-08-25T03:07:39;96961.53;;;19.94
60949;BMP280;46729;43.010;24.320;2022-08-25T03:10:12;96948.78;;;20.01
60949;BMP280;46729;43.010;24.320;2022-08-25T03:12:39;96950.41;;;20.02
60949;BMP280;46729;43.010;24.320;2022-08-25T03:15:07;96942.41;;;20.02
60949;BMP280;46729;43.010;24.320;2022-08-25T03:17:34;96945.88;;;20.02
60949;BMP280;46729;43.010;24.320;2022-08-25T03:19:59;96944.25;;;20.01
60949;BMP280;46729;43.010;24.320;2022-08-25T03:22:25;96942.66;;;20.00
60949;BMP280;46729;43.010;24.320;2022-08-25T03:24:50;96942.09;;;19.98
60949;BMP280;46729;43.010;24.320;2022-08-25T03:27:16;96954.38;;;19.99
60949;BMP280;46729;43.010;24.320;2022-08-25T03:29:42;96954.09;;;19.96
60949;BMP280;46729;43.010;24.320;2022-08-25T03:32:08;96959.94;;;19.98
60949;BMP280;46729;43.010;24.320;2022-08-25T03:34:33;96964.22;;;19.99
60949;BMP280;46729;43.010;24.320;2022-08-25T03:36:59;96971.16;;;19.95
60949;BMP280;46729;43.010;24.320;2022-08-25T03:39:25;96968.47;;;19.95
60949;BMP280;46729;43.010;24.320;2022-08-25T03:41:52;96964.22;;;19.99
60949;BMP280;46729;43.010;24.320;2022-08-25T03:44:19;96976.97;;;19.92
60949;BMP280;46729;43.010;24.320;2022-08-25T03:46:47;96976.19;;;19.96
60949;BMP280;46729;43.010;24.320;2022-08-25T03:49:16;96971.31;;;19.88
60949;BMP280;46729;43.010;24.320;2022-08-25T03:51:44;96977.19;;;19.85
60949;BMP280;46729;43.010;24.320;2022-08-25T03:54:17;96968.56;;;19.79
60949;BMP280;46729;43.010;24.320;2022-08-25T03:56:43;96969.47;;;19.63
60949;BMP280;46729;43.010;24.320;2022-08-25T03:59:09;96966.34;;;19.71
60949;BMP280;46729;43.010;24.320;2022-08-25T04:01:40;96964.31;;;19.78
60949;BMP280;46729;43.010;24.320;2022-08-25T04:04:08;96964.25;;;19.73
60949;BMP280;46729;43.010;24.320;2022-08-25T04:06:34;96969.13;;;19.81
60949;BMP280;46729;43.010;24.320;2022-08-25T04:09:00;96972.09;;;19.84
60949;BMP280;46729;43.010;24.320;2022-08-25T04:11:26;96979.06;;;19.90
60949;BMP280;46729;43.010;24.320;2022-08-25T04:13:55;96980.47;;;19.97
60949;BMP280;46729;43.010;24.320;2022-08-25T04:16:24;96980.75;;;19.96
60949;BMP280;46729;43.010;24.320;2022-08-25T04:18:51;96978.94;;;20.01
60949;BMP280;46729;43.010;24.320;2022-08-25T04:21:17;96976.03;;;20.03
60949;BMP280;46729;43.010;24.320;2022-08-25T04:23:45;96973.28;;;19.98
60949;BMP280;46729;43.010;24.320;2022-08-25T04:26:31;96978.47;;;19.83
60949;BMP280;46729;43.010;24.320;2022-08-25T04:28:59;96972.13;;;19.89
60949;BMP280;46729;43.010;24.320;2022-08-25T04:31:25;96966.66;;;20.00
60949;BMP280;46729;43.010;24.320;2022-08-25T04:33:51;96962.63;;;19.98
60949;BMP280;46729;43.010;24.320;2022-08-25T04:36:18;96967.25;;;20.07
60949;BMP280;46729;43.010;24.320;2022-08-25T04:38:46;96966.84;;;20.20
60949;BMP280;46729;43.010;24.320;2022-08-25T04:41:14;96976.00;;;20.28
60949;BMP280;46729;43.010;24.320;2022-08-25T04:43:41;96965.91;;;20.35
60949;BMP280;46729;43.010;24.320;2022-08-25T04:46:12;96966.75;;;20.41
60949;BMP280;46729;43.010;24.320;2022-08-25T04:48:39;96967.81;;;20.40
60949;BMP280;46729;43.010;24.320;2022-08-25T04:51:06;96966.94;;;20.65
60949;BMP280;46729;43.010;24.320;2022-08-25T04:53:33;96959.81;;;20.75
60949;BMP280;46729;43.010;24.320;2022-08-25T04:55:59;96970.22;;;20.77
60949;BMP280;46729;43.010;24.320;2022-08-25T04:58:25;96972.66;;;20.83
60949;BMP280;46729;43.010;24.320;2022-08-25T05:00:51;96968.75;;;20.95
60949;BMP280;46729;43.010;24.320;2022-08-25T05:03:17;96970.94;;;21.08
60949;BMP280;46729;43.010;24.320;2022-08-25T05:05:43;96970.69;;;21.09
60949;BMP280;46729;43.010;24.320;2022-08-25T05:08:08;96971.22;;;21.11
60949;BMP280;46729;43.010;24.320;2022-08-25T05:10:38;96971.06;;;21.22
60949;BMP280;46729;43.010;24.320;2022-08-25T05:13:04;96977.25;;;21.33
60949;BMP280;46729;43.010;24.320;2022-08-25T05:15:30;96966.06;;;21.40
60949;BMP280;46729;43.010;24.320;2022-08-25T05:18:15;96969.28;;;21.52
60949;BMP280;46729;43.010;24.320;2022-08-25T05:20:40;96959.19;;;21.64
60949;BMP280;46729;43.010;24.320;2022-08-25T05:23:06;96958.13;;;21.65
60949;BMP280;46729;43.010;24.320;2022-08-25T05:25:31;96956.81;;;21.82
60949;BMP280;46729;43.010;24.320;2022-08-25T05:27:57;96962.44;;;21.85
60949;BMP280;46729;43.010;24.320;2022-08-25T05:30:23;96969.19;;;21.93
60949;BMP280;46729;43.010;24.320;2022-08-25T05:32:48;96974.81;;;22.06
60949;BMP280;46729;43.010;24.320;2022-08-25T05:35:14;96974.56;;;22.12
60949;BMP280;46729;43.010;24.320;2022-08-25T05:37:40;96979.09;;;22.12
60949;BMP280;46729;43.010;24.320;2022-08-25T05:40:07;96980.47;;;22.09
60949;BMP280;46729;43.010;24.320;2022-08-25T05:42:33;96986.63;;;22.10
60949;BMP280;46729;43.010;24.320;2022-08-25T05:44:58;96984.47;;;22.12
60949;BMP280;46729;43.010;24.320;2022-08-25T05:47:25;96985.28;;;22.22
60949;BMP280;46729;43.010;24.320;2022-08-25T05:49:51;96970.56;;;22.24
60949;BMP280;46729;43.010;24.320;2022-08-25T05:52:16;96987.44;;;22.34
60949;BMP280;46729;43.010;24.320;2022-08-25T05:54:42;96977.81;;;22.33
60949;BMP280;46729;43.010;24.320;2022-08-25T05:57:08;96981.53;;;22.37
60949;BMP280;46729;43.010;24.320;2022-08-25T05:59:34;96977.28;;;22.36
60949;BMP280;46729;43.010;24.320;2022-08-25T06:02:00;96987.19;;;22.36
60949;BMP280;46729;43.010;24.320;2022-08-25T06:04:44;96981.28;;;22.34
60949;BMP280;46729;43.010;24.320;2022-08-25T06:07:10;96983.97;;;22.44
60949;BMP280;46729;43.010;24.320;2022-08-25T06:09:37;96978.63;;;22.53
60949;BMP280;46729;43.010;24.320;2022-08-25T06:12:04;96982.38;;;22.67
60949;BMP280;46729;43.010;24.320;2022-08-25T06:14:30;96980.22;;;22.64
60949;BMP280;46729;43.010;24.320;2022-08-25T06:16:55;96985.03;;;22.72
60949;BMP280;46729;43.010;24.320;2022-08-25T06:19:21;96976.75;;;22.69
60949;BMP280;46729;43.010;24.320;2022-08-25T06:21:48;96974.84;;;22.84
60949;BMP280;46729;43.010;24.320;2022-08-25T06:24:13;96969.22;;;22.85
60949;BMP280;46729;43.010;24.320;2022-08-25T06:26:39;96972.97;;;22.89
60949;BMP280;46729;43.010;24.320;2022-08-25T06:29:05;96962.22;;;23.04
60949;BMP280;46729;43.010;24.320;2022-08-25T06:31:30;96969.44;;;23.08
60949;BMP280;46729;43.010;24.320;2022-08-25T06:33:56;96962.00;;;22.86
60949;BMP280;46729;43.010;24.320;2022-08-25T06:36:23;96965.16;;;23.12
60949;BMP280;46729;43.010;24.320;2022-08-25T06:38:48;96962.94;;;23.24
60949;BMP280;46729;43.010;24.320;2022-08-25T06:41:14;96971.56;;;23.21
60949;BMP280;46729;43.010;24.320;2022-08-25T06:43:41;96971.00;;;23.33
60949;BMP280;46729;43.010;24.320;2022-08-25T06:46:26;96976.63;;;23.32
60949;BMP280;46729;43.010;24.320;2022-08-25T06:48:53;96975.28;;;23.34
60949;BMP280;46729;43.010;24.320;2022-08-25T06:51:20;96978.22;;;23.38
60949;BMP280;46729;43.010;24.320;2022-08-25T06:53:47;96975.28;;;23.39
60949;BMP280;46729;43.010;24.320;2022-08-25T06:56:18;96969.31;;;23.52
60949;BMP280;46729;43.010;24.320;2022-08-25T06:58:44;96948.88;;;23.61
60949;BMP280;46729;43.010;24.320;2022-08-25T07:01:21;96945.94;;;23.62
60949;BMP280;46729;43.010;24.320;2022-08-25T07:03:52;96944.75;;;23.78
60949;BMP280;46729;43.010;24.320;2022-08-25T07:06:18;96951.03;;;23.64
60949;BMP280;46729;43.010;24.320;2022-08-25T07:08:47;96941.06;;;23.69
60949;BMP280;46729;43.010;24.320;2022-08-25T07:11:14;96946.59;;;23.87
60949;BMP280;46729;43.010;24.320;2022-08-25T07:13:39;96944.97;;;23.96
60949;BMP280;46729;43.010;24.320;2022-08-25T07:16:05;96952.41;;;24.04
60949;BMP280;46729;43.010;24.320;2022-08-25T07:18:32;96954.50;;;24.11
60949;BMP280;46729;43.010;24.320;2022-08-25T07:20:57;96948.53;;;24.24
60949;BMP280;46729;43.010;24.320;2022-08-25T07:23:24;96946.50;;;24.39
60949;BMP280;46729;43.010;24.320;2022-08-25T07:25:51;96947.06;;;24.36
60949;BMP280;46729;43.010;24.320;2022-08-25T07:28:17;96947.13;;;24.31
60949;BMP280;46729;43.010;24.320;2022-08-25T07:30:43;96939.53;;;24.38
60949;BMP280;46729;43.010;24.320;2022-08-25T07:33:09;96943.50;;;24.45
60949;BMP280;46729;43.010;24.320;2022-08-25T07:35:35;96940.44;;;24.62
60949;BMP280;46729;43.010;24.320;2022-08-25T07:38:03;96940.94;;;24.68
60949;BMP280;46729;43.010;24.320;2022-08-25T07:40:32;96945.78;;;24.66
60949;BMP280;46729;43.010;24.320;2022-08-25T07:43:00;96944.22;;;24.56
60949;BMP280;46729;43.010;24.320;2022-08-25T07:45:28;96948.06;;;24.45
60949;BMP280;46729;43.010;24.320;2022-08-25T07:48:15;96953.72;;;24.44
60949;BMP280;46729;43.010;24.320;2022-08-25T07:50:43;96955.31;;;24.44
60949;BMP280;46729;43.010;24.320;2022-08-25T07:53:10;96956.38;;;24.48
60949;BMP280;46729;43.010;24.320;2022-08-25T07:55:37;96960.41;;;24.46
60949;BMP280;46729;43.010;24.320;2022-08-25T07:58:05;96961.22;;;24.46
60949;BMP280;46729;43.010;24.320;2022-08-25T08:00:32;96967.69;;;24.45
60949;BMP280;46729;43.010;24.320;2022-08-25T08:03:02;96965.50;;;24.47
60949;BMP280;46729;43.010;24.320;2022-08-25T08:05:28;96958.47;;;24.56
60949;BMP280;46729;43.010;24.320;2022-08-25T08:07:54;96960.00;;;24.67
60949;BMP280;46729;43.010;24.320;2022-08-25T08:10:21;96956.28;;;24.63
60949;BMP280;46729;43.010;24.320;2022-08-25T08:12:47;96959.16;;;24.71
60949;BMP280;46729;43.010;24.320;2022-08-25T08:15:14;96958.69;;;24.92
60949;BMP280;46729;43.010;24.320;2022-08-25T08:17:40;96957.53;;;24.98
60949;BMP280;46729;43.010;24.320;2022-08-25T08:20:08;96960.06;;;24.90
60949;BMP280;46729;43.010;24.320;2022-08-25T08:22:35;96948.03;;;24.83
60949;BMP280;46729;43.010;24.320;2022-08-25T08:25:01;96945.72;;;24.99
60949;BMP280;46729;43.010;24.320;2022-08-25T08:27:27;96948.41;;;24.99
60949;BMP280;46729;43.010;24.320;2022-08-25T08:29:52;96951.72;;;24.91
60949;BMP280;46729;43.010;24.320;2022-08-25T08:32:18;96945.72;;;24.99
60949;BMP280;46729;43.010;24.320;2022-08-25T08:34:44;96947.69;;;24.89
60949;BMP280;46729;43.010;24.320;2022-08-25T08:37:11;96942.91;;;25.09
60949;BMP280;46729;43.010;24.320;2022-08-25T08:39:37;96940.66;;;25.43
60949;BMP280;46729;43.010;24.320;2022-08-25T08:45:31;96931.47;;;25.67
60949;BMP280;46729;43.010;24.320;2022-08-25T08:53:42;96920.63;;;26.26
60949;BMP280;46729;43.010;24.320;2022-08-25T08:56:17;96922.94;;;26.33
60949;BMP280;46729;43.010;24.320;2022-08-25T08:58:45;96925.66;;;26.51
60949;BMP280;46729;43.010;24.320;2022-08-25T09:01:18;96914.72;;;26.42
60949;BMP280;46729;43.010;24.320;2022-08-25T09:03:59;96909.31;;;26.60
60949;BMP280;46729;43.010;24.320;2022-08-25T09:06:40;96911.19;;;26.91
60949;BMP280;46729;43.010;24.320;2022-08-25T09:09:08;96914.25;;;27.16
60949;BMP280;46729;43.010;24.320;2022-08-25T09:18:09;96911.13;;;27.49
60949;BMP280;46729;43.010;24.320;2022-08-25T09:21:05;96902.84;;;27.32
60949;BMP280;46729;43.010;24.320;2022-08-25T09:26:41;96916.66;;;26.73
60949;BMP280;46729;43.010;24.320;2022-08-25T09:29:13;96910.22;;;26.69
60949;BMP280;46729;43.010;24.320;2022-08-25T09:31:41;96908.50;;;26.91
60949;BMP280;46729;43.010;24.320;2022-08-25T09:34:12;96908.38;;;26.52
60949;BMP280;46729;43.010;24.320;2022-08-25T09:36:40;96900.88;;;26.80
60949;BMP280;46729;43.010;24.320;2022-08-25T09:39:06;96900.97;;;26.88
60949;BMP280;46729;43.010;24.320;2022-08-25T09:41:46;96909.06;;;26.88
60949;BMP280;46729;43.010;24.320;2022-08-25T09:47:05;96907.59;;;26.51
60949;BMP280;46729;43.010;24.320;2022-08-25T09:49:56;96895.94;;;26.69
60949;BMP280;46729;43.010;24.320;2022-08-25T09:52:36;96889.63;;;26.29
60949;BMP280;46729;43.010;24.320;2022-08-25T10:00:23;96873.69;;;27.08
60949;BMP280;46729;43.010;24.320;2022-08-25T10:03:20;96871.34;;;27.28
60949;BMP280;46729;43.010;24.320;2022-08-25T10:09:24;96858.72;;;27.76
60949;BMP280;46729;43.010;24.320;2022-08-25T10:11:37;96849.53;;;27.98
60949;BMP280;46729;43.010;24.320;2022-08-25T10:14:36;96845.97;;;27.90
60949;BMP280;46729;43.010;24.320;2022-08-25T10:17:26;96850.06;;;27.39
60949;BMP280;46729;43.010;24.320;2022-08-25T10:19:54;96846.69;;;27.21
60949;BMP280;46729;43.010;24.320;2022-08-25T10:22:23;96843.75;;;27.57
60949;BMP280;46729;43.010;24.320;2022-08-25T10:24:56;96837.84;;;28.03
60949;BMP280;46729;43.010;24.320;2022-08-25T10:30:03;96837.84;;;28.03
60949;BMP280;46729;43.010;24.320;2022-08-25T10:35:15;96826.47;;;28.14
60949;BMP280;46729;43.010;24.320;2022-08-25T10:43:04;96826.72;;;28.77
60949;BMP280;46729;43.010;24.320;2022-08-25T10:45:44;96813.03;;;28.44
60949;BMP280;46729;43.010;24.320;2022-08-25T10:56:23;96822.44;;;27.08
60949;BMP280;46729;43.010;24.320;2022-08-25T11:04:47;96817.47;;;27.49
60949;BMP280;46729;43.010;24.320;2022-08-25T11:07:27;96805.47;;;27.68
60949;BMP280;46729;43.010;24.320;2022-08-25T11:09:58;96807.84;;;27.56
60949;BMP280;46729;43.010;24.320;2022-08-25T11:12:34;96805.00;;;27.40
60949;BMP280;46729;43.010;24.320;2022-08-25T11:15:11;96810.13;;;27.15
60949;BMP280;46729;43.010;24.320;2022-08-25T11:18:11;96809.50;;;27.05
60949;BMP280;46729;43.010;24.320;2022-08-25T11:20:44;96805.41;;;27.81
60949;BMP280;46729;43.010;24.320;2022-08-25T11:23:21;96812.94;;;28.14
60949;BMP280;46729;43.010;24.320;2022-08-25T11:25:54;96798.97;;;28.33
60949;BMP280;46729;43.010;24.320;2022-08-25T11:28:46;96806.03;;;28.21
60949;BMP280;46729;43.010;24.320;2022-08-25T11:31:14;96802.97;;;28.36
60949;BMP280;46729;43.010;24.320;2022-08-25T11:33:40;96805.84;;;28.18
60949;BMP280;46729;43.010;24.320;2022-08-25T11:36:36;96810.63;;;27.78
60949;BMP280;46729;43.010;24.320;2022-08-25T11:44:46;96813.63;;;27.15
60949;BMP280;46729;43.010;24.320;2022-08-25T11:49:52;96823.09;;;26.74
60949;BMP280;46729;43.010;24.320;2022-08-25T11:55:27;96818.59;;;26.56
60949;BMP280;46729;43.010;24.320;2022-08-25T11:57:52;96812.81;;;26.44
60949;BMP280;46729;43.010;24.320;2022-08-25T12:06:28;96796.25;;;26.37
60949;BMP280;46729;43.010;24.320;2022-08-25T12:09:14;96803.53;;;26.37
60949;BMP280;46729;43.010;24.320;2022-08-25T12:11:41;96807.03;;;26.37
60949;BMP280;46729;43.010;24.320;2022-08-25T12:29:45;96797.44;;;27.63
60949;BMP280;46729;43.010;24.320;2022-08-25T12:33:06;96793.53;;;27.21
60949;BMP280;46729;43.010;24.320;2022-08-25T12:37:33;96799.03;;;26.90
60949;BMP280;46729;43.010;24.320;2022-08-25T12:40:01;96800.84;;;26.81
60949;BMP280;46729;43.010;24.320;2022-08-25T12:42:34;96810.00;;;26.80
60949;BMP280;46729;43.010;24.320;2022-08-25T12:45:51;96810.78;;;26.68
60949;BMP280;46729;43.010;24.320;2022-08-25T12:53:40;96811.59;;;26.55
60949;BMP280;46729;43.010;24.320;2022-08-25T12:56:24;96807.88;;;26.51
60949;BMP280;46729;43.010;24.320;2022-08-25T12:59:06;96808.38;;;26.53
60949;BMP280;46729;43.010;24.320;2022-08-25T13:02:18;96808.38;;;26.53
60949;BMP280;46729;43.010;24.320;2022-08-25T13:05:13;96801.22;;;26.49
60949;BMP280;46729;43.010;24.320;2022-08-25T13:16:20;96795.63;;;26.72
60949;BMP280;46729;43.010;24.320;2022-08-25T13:18:46;96797.22;;;26.73
60949;BMP280;46729;43.010;24.320;2022-08-25T13:21:18;96789.72;;;26.70
60949;BMP280;46729;43.010;24.320;2022-08-25T13:23:55;96796.22;;;26.69
60949;BMP280;46729;43.010;24.320;2022-08-25T13:26:29;96794.53;;;26.73
60949;BMP280;46729;43.010;24.320;2022-08-25T13:29:11;96789.13;;;26.86
60949;BMP280;46729;43.010;24.320;2022-08-25T13:31:53;96779.25;;;26.81
60949;BMP280;46729;43.010;24.320;2022-08-25T13:34:21;96775.66;;;26.86
60949;BMP280;46729;43.010;24.320;2022-08-25T13:36:48;96766.06;;;26.80
60949;BMP280;46729;43.010;24.320;2022-08-25T13:39:33;96768.56;;;26.76
60949;BMP280;46729;43.010;24.320;2022-08-25T13:42:00;96770.34;;;27.07
60949;BMP280;46729;43.010;24.320;2022-08-25T13:44:29;96769.53;;;27.20
60949;BMP280;46729;43.010;24.320;2022-08-25T13:49:30;96772.47;;;26.97
60949;BMP280;46729;43.010;24.320;2022-08-25T13:51:55;96761.47;;;26.94
60949;BMP280;46729;43.010;24.320;2022-08-25T13:54:33;96769.03;;;27.05
60949;BMP280;46729;43.010;24.320;2022-08-25T13:57:21;96753.69;;;27.18
60949;BMP280;46729;43.010;24.320;2022-08-25T13:59:54;96746.94;;;27.29
60949;BMP280;46729;43.010;24.320;2022-08-25T14:02:45;96749.25;;;27.35
60949;BMP280;46729;43.010;24.320;2022-08-25T14:05:13;96749.16;;;27.27
60949;BMP280;46729;43.010;24.320;2022-08-25T14:07:39;96752.84;;;27.31
60949;BMP280;46729;43.010;24.320;2022-08-25T14:10:28;96755.16;;;27.24
60949;BMP280;46729;43.010;24.320;2022-08-25T14:15:40;96753.34;;;27.33
60949;BMP280;46729;43.010;24.320;2022-08-25T14:18:12;96750.28;;;27.48
60949;BMP280;46729;43.010;24.320;2022-08-25T14:20:44;96745.63;;;27.40
60949;BMP280;46729;43.010;24.320;2022-08-25T14:23:15;96737.81;;;27.52
60949;BMP280;46729;43.010;24.320;2022-08-25T14:25:40;96746.50;;;27.49
60949;BMP280;46729;43.010;24.320;2022-08-25T14:28:14;96741.53;;;27.42
60949;BMP280;46729;43.010;24.320;2022-08-25T14:30:55;96741.91;;;27.49
60949;BMP280;46729;43.010;24.320;2022-08-25T14:33:27;96736.81;;;27.48
60949;BMP280;46729;43.010;24.320;2022-08-25T14:35:53;96730.75;;;27.29
60949;BMP280;46729;43.010;24.320;2022-08-25T14:38:20;96727.56;;;27.27
60949;BMP280;46729;43.010;24.320;2022-08-25T14:40:46;96725.63;;;27.41
60949;BMP280;46729;43.010;24.320;2022-08-25T14:43:12;96734.53;;;27.63
60949;BMP280;46729;43.010;24.320;2022-08-25T14:45:41;96729.56;;;27.70
60949;BMP280;46729;43.010;24.320;2022-08-25T14:48:12;96722.06;;;27.53
60949;BMP280;46729;43.010;24.320;2022-08-25T14:50:39;96716.56;;;27.58
60949;BMP280;46729;43.010;24.320;2022-08-25T14:53:06;96724.84;;;27.62
60949;BMP280;46729;43.010;24.320;2022-08-25T14:55:31;96723.81;;;27.50
60949;BMP280;46729;43.010;24.320;2022-08-25T14:57:58;96723.44;;;27.64
60949;BMP280;46729;43.010;24.320;2022-08-25T15:00:23;96721.63;;;27.38
60949;BMP280;46729;43.010;24.320;2022-08-25T15:02:49;96729.63;;;27.43
60949;BMP280;46729;43.010;24.320;2022-08-25T15:05:20;96721.59;;;27.52
60949;BMP280;46729;43.010;24.320;2022-08-25T15:07:49;96707.25;;;27.64
60949;BMP280;46729;43.010;24.320;2022-08-25T15:10:34;96713.28;;;27.61
60949;BMP280;46729;43.010;24.320;2022-08-25T15:12:59;96714.41;;;27.47
60949;BMP280;46729;43.010;24.320;2022-08-25T15:15:25;96707.00;;;27.52
60949;BMP280;46729;43.010;24.320;2022-08-25T15:17:53;96703.84;;;27.37
60949;BMP280;46729;43.010;24.320;2022-08-25T15:20:19;96711.38;;;27.27
60949;BMP280;46729;43.010;24.320;2022-08-25T15:22:44;96697.13;;;27.14
60949;BMP280;46729;43.010;24.320;2022-08-25T15:25:12;96713.50;;;27.04
60949;BMP280;46729;43.010;24.320;2022-08-25T15:27:38;96706.25;;;26.91
60949;BMP280;46729;43.010;24.320;2022-08-25T15:30:04;96695.88;;;26.85
60949;BMP280;46729;43.010;24.320;2022-08-25T15:32:30;96701.41;;;26.67
60949;BMP280;46729;43.010;24.320;2022-08-25T15:34:55;96709.47;;;26.54
60949;BMP280;46729;43.010;24.320;2022-08-25T15:37:21;96715.47;;;26.51
60949;BMP280;46729;43.010;24.320;2022-08-25T15:39:46;96715.63;;;26.15
60949;BMP280;46729;43.010;24.320;2022-08-25T15:42:13;96711.09;;;25.97
60949;BMP280;46729;43.010;24.320;2022-08-25T15:44:41;96717.94;;;25.90
60949;BMP280;46729;43.010;24.320;2022-08-25T15:47:08;96721.31;;;25.64
60949;BMP280;46729;43.010;24.320;2022-08-25T15:49:34;96712.56;;;25.41
60949;BMP280;46729;43.010;24.320;2022-08-25T15:52:00;96718.31;;;25.34
60949;BMP280;46729;43.010;24.320;2022-08-25T15:54:26;96713.63;;;25.21
60949;BMP280;46729;43.010;24.320;2022-08-25T15:56:52;96712.91;;;25.16
60949;BMP280;46729;43.010;24.320;2022-08-25T15:59:19;96714.22;;;25.01
60949;BMP280;46729;43.010;24.320;2022-08-25T16:01:44;96714.28;;;24.96
60949;BMP280;46729;43.010;24.320;2022-08-25T16:04:10;96716.16;;;24.95